sensor_id;sensor_type;location;lat;lon;timestamp;P1;durP1;ratioP1;P2;durP2;ratioP2
54923;SDS011;40825;52.270;20.984;2024-03-29T00:01:06;11.60;;;5.10;;
54923;SDS011;40825;52.270;20.984;2024-03-29T00:03:50;13.00;;;5.20;;
54923;SDS011;40825;52.270;20.984;2024-03-29T00:06:16;11.60;;;5.70;;
54923;SDS011;40825;52.270;20.984;2024-03-29T00:08:42;12.50;;;5.30;;
54923;SDS011;40825;52.270;20.984;2024-03-29T00:11:26;13.30;;;4.70;;
54923;SDS011;40825;52.270;20.984;2024-03-29T00:13:52;10.80;;;4.60;;
54923;SDS011;40825;52.270;20.984;2024-03-29T00:16:18;11.00;;;4.90;;
54923;SDS011;40825;52.270;20.984;2024-03-29T00:18:44;11.00;;;5.10;;
54923;SDS011;40825;52.270;20.984;2024-03-29T00:21:09;9.90;;;5.10;;
54923;SDS011;40825;52.270;20.984;2024-03-29T00:23:35;12.70;;;5.00;;
54923;SDS011;40825;52.270;20.984;2024-03-29T00:26:00;12.70;;;5.00;;
54923;SDS011;40825;52.270;20.984;2024-03-29T00:28:26;9.10;;;5.20;;
54923;SDS011;40825;52.270;20.984;2024-03-29T00:30:51;9.70;;;4.70;;
54923;SDS011;40825;52.270;20.984;2024-03-29T00:33:35;10.30;;;4.10;;
54923;SDS011;40825;52.270;20.984;2024-03-29T00:36:01;9.00;;;3.90;;
54923;SDS011;40825;52.270;20.984;2024-03-29T00:38:27;9.20;;;3.60;;
54923;SDS011;40825;52.270;20.984;2024-03-29T00:40:52;9.90;;;4.50;;
54923;SDS011;40825;52.270;20.984;2024-03-29T00:43:18;9.80;;;3.80;;
54923;SDS011;40825;52.270;20.984;2024-03-29T00:45:43;7.90;;;3.30;;
54923;SDS011;40825;52.270;20.984;2024-03-29T00:48:09;8.20;;;3.40;;
54923;SDS011;40825;52.270;20.984;2024-03-29T00:50:34;9.40;;;3.80;;
54923;SDS011;40825;52.270;20.984;2024-03-29T00:52:59;7.00;;;3.00;;
54923;SDS011;40825;52.270;20.984;2024-03-29T00:55:25;10.20;;;3.80;;
54923;SDS011;40825;52.270;20.984;2024-03-29T00:57:51;7.90;;;3.30;;
54923;SDS011;40825;52.270;20.984;2024-03-29T01:00:16;9.10;;;3.30;;
54923;SDS011;40825;52.270;20.984;2024-03-29T01:02:42;8.30;;;3.00;;
54923;SDS011;40825;52.270;20.984;2024-03-29T01:05:07;7.30;;;2.70;;
54923;SDS011;40825;52.270;20.984;2024-03-29T01:07:33;6.60;;;2.80;;
54923;SDS011;40825;52.270;20.984;2024-03-29T01:09:59;7.00;;;2.90;;
54923;SDS011;40825;52.270;20.984;2024-03-29T01:12:25;5.80;;;2.20;;
54923;SDS011;40825;52.270;20.984;2024-03-29T01:14:51;7.40;;;2.50;;
54923;SDS011;40825;52.270;20.984;2024-03-29T01:17:17;6.20;;;2.20;;
54923;SDS011;40825;52.270;20.984;2024-03-29T01:19:43;6.00;;;2.10;;
54923;SDS011;40825;52.270;20.984;2024-03-29T01:22:08;5.70;;;2.00;;
54923;SDS011;40825;52.270;20.984;2024-03-29T01:24:34;6.80;;;2.00;;
54923;SDS011;40825;52.270;20.984;2024-03-29T01:26:59;3.80;;;1.40;;
54923;SDS011;40825;52.270;20.984;2024-03-29T01:29:43;4.30;;;1.50;;
54923;SDS011;40825;52.270;20.984;2024-03-29T01:32:09;4.10;;;1.60;;
54923;SDS011;40825;52.270;20.984;2024-03-29T01:34:34;5.80;;;1.60;;
54923;SDS011;40825;52.270;20.984;2024-03-29T01:37:00;5.30;;;1.60;;
54923;SDS011;40825;52.270;20.984;2024-03-29T01:39:25;4.90;;;1.80;;
54923;SDS011;40825;52.270;20.984;2024-03-29T01:41:56;5.60;;;2.10;;
54923;SDS011;40825;52.270;20.984;2024-03-29T01:44:22;5.50;;;1.90;;
54923;SDS011;40825;52.270;20.984;2024-03-29T01:46:47;5.70;;;2.20;;
54923;SDS011;40825;52.270;20.984;2024-03-29T01:49:31;5.30;;;1.50;;
54923;SDS011;40825;52.270;20.984;2024-03-29T01:51:56;6.40;;;2.20;;
54923;SDS011;40825;52.270;20.984;2024-03-29T01:54:22;4.60;;;2.00;;
54923;SDS011;40825;52.270;20.984;2024-03-29T01:56:47;5.30;;;1.90;;
54923;SDS011;40825;52.270;20.984;2024-03-29T01:59:14;4.30;;;1.70;;
54923;SDS011;40825;52.270;20.984;2024-03-29T02:01:41;4.20;;;1.50;;
54923;SDS011;40825;52.270;20.984;2024-03-29T02:04:07;7.10;;;1.70;;
54923;SDS011;40825;52.270;20.984;2024-03-29T02:06:52;4.80;;;1.50;;
54923;SDS011;40825;52.270;20.984;2024-03-29T02:09:17;5.00;;;1.60;;
54923;SDS011;40825;52.270;20.984;2024-03-29T02:11:43;4.70;;;1.50;;
54923;SDS011;40825;52.270;20.984;2024-03-29T02:14:08;3.80;;;1.80;;
54923;SDS011;40825;52.270;20.984;2024-03-29T02:16:34;5.20;;;1.50;;
54923;SDS011;40825;52.270;20.984;2024-03-29T02:18:59;4.90;;;1.40;;
54923;SDS011;40825;52.270;20.984;2024-03-29T02:21:25;4.00;;;1.20;;
54923;SDS011;40825;52.270;20.984;2024-03-29T02:24:05;3.90;;;1.60;;
54923;SDS011;40825;52.270;20.984;2024-03-29T02:26:32;4.10;;;1.30;;
54923;SDS011;40825;52.270;20.984;2024-03-29T02:29:01;3.70;;;1.30;;
54923;SDS011;40825;52.270;20.984;2024-03-29T02:31:28;4.30;;;1.80;;
54923;SDS011;40825;52.270;20.984;2024-03-29T02:33:54;3.70;;;1.20;;
54923;SDS011;40825;52.270;20.984;2024-03-29T02:36:38;5.70;;;1.50;;
54923;SDS011;40825;52.270;20.984;2024-03-29T02:39:04;5.30;;;1.50;;
54923;SDS011;40825;52.270;20.984;2024-03-29T02:41:30;4.10;;;1.30;;
54923;SDS011;40825;52.270;20.984;2024-03-29T02:43:56;4.40;;;1.60;;
54923;SDS011;40825;52.270;20.984;2024-03-29T02:46:22;3.60;;;1.00;;
54923;SDS011;40825;52.270;20.984;2024-03-29T02:48:48;3.20;;;1.30;;
54923;SDS011;40825;52.270;20.984;2024-03-29T02:51:14;4.80;;;1.40;;
54923;SDS011;40825;52.270;20.984;2024-03-29T02:53:39;3.90;;;1.40;;
54923;SDS011;40825;52.270;20.984;2024-03-29T02:56:23;5.00;;;1.70;;
54923;SDS011;40825;52.270;20.984;2024-03-29T02:58:49;2.90;;;1.00;;
54923;SDS011;40825;52.270;20.984;2024-03-29T03:01:14;4.20;;;1.00;;
54923;SDS011;40825;52.270;20.984;2024-03-29T03:03:40;3.00;;;1.20;;
54923;SDS011;40825;52.270;20.984;2024-03-29T03:06:05;3.90;;;1.60;;
54923;SDS011;40825;52.270;20.984;2024-03-29T03:08:31;4.00;;;1.00;;
54923;SDS011;40825;52.270;20.984;2024-03-29T03:11:15;4.50;;;1.50;;
54923;SDS011;40825;52.270;20.984;2024-03-29T03:13:41;4.00;;;1.10;;
54923;SDS011;40825;52.270;20.984;2024-03-29T03:16:06;3.60;;;1.00;;
54923;SDS011;40825;52.270;20.984;2024-03-29T03:18:32;3.20;;;1.00;;
54923;SDS011;40825;52.270;20.984;2024-03-29T03:20:59;4.40;;;1.20;;
54923;SDS011;40825;52.270;20.984;2024-03-29T03:23:24;4.80;;;1.50;;
54923;SDS011;40825;52.270;20.984;2024-03-29T03:25:53;5.20;;;1.60;;
54923;SDS011;40825;52.270;20.984;2024-03-29T03:28:23;3.70;;;1.40;;
54923;SDS011;40825;52.270;20.984;2024-03-29T03:30:49;4.70;;;1.30;;
54923;SDS011;40825;52.270;20.984;2024-03-29T03:33:16;3.90;;;1.20;;
54923;SDS011;40825;52.270;20.984;2024-03-29T03:35:42;4.40;;;1.10;;
54923;SDS011;40825;52.270;20.984;2024-03-29T03:38:08;5.00;;;1.30;;
54923;SDS011;40825;52.270;20.984;2024-03-29T03:40:52;5.00;;;1.10;;
54923;SDS011;40825;52.270;20.984;2024-03-29T03:43:17;2.70;;;1.20;;
54923;SDS011;40825;52.270;20.984;2024-03-29T03:45:43;3.60;;;1.30;;
54923;SDS011;40825;52.270;20.984;2024-03-29T03:48:27;3.50;;;1.10;;
54923;SDS011;40825;52.270;20.984;2024-03-29T03:50:54;2.90;;;1.40;;
54923;SDS011;40825;52.270;20.984;2024-03-29T03:53:21;4.90;;;1.30;;
54923;SDS011;40825;52.270;20.984;2024-03-29T03:55:46;4.00;;;1.20;;
54923;SDS011;40825;52.270;20.984;2024-03-29T03:58:12;4.80;;;1.20;;
54923;SDS011;40825;52.270;20.984;2024-03-29T04:00:37;3.50;;;1.20;;
54923;SDS011;40825;52.270;20.984;2024-03-29T04:03:03;3.50;;;1.20;;
54923;SDS011;40825;52.270;20.984;2024-03-29T04:05:29;3.50;;;1.30;;
54923;SDS011;40825;52.270;20.984;2024-03-29T04:07:56;3.80;;;1.10;;
54923;SDS011;40825;52.270;20.984;2024-03-29T04:10:22;4.00;;;1.00;;
54923;SDS011;40825;52.270;20.984;2024-03-29T04:12:49;2.50;;;0.70;;
54923;SDS011;40825;52.270;20.984;2024-03-29T04:15:15;3.80;;;1.20;;
54923;SDS011;40825;52.270;20.984;2024-03-29T04:17:41;3.40;;;0.90;;
54923;SDS011;40825;52.270;20.984;2024-03-29T04:20:25;4.30;;;0.90;;
54923;SDS011;40825;52.270;20.984;2024-03-29T04:22:50;3.10;;;1.00;;
54923;SDS011;40825;52.270;20.984;2024-03-29T04:25:16;4.70;;;1.20;;
54923;SDS011;40825;52.270;20.984;2024-03-29T04:27:41;4.50;;;1.10;;
54923;SDS011;40825;52.270;20.984;2024-03-29T04:30:07;5.00;;;1.30;;
54923;SDS011;40825;52.270;20.984;2024-03-29T04:32:33;2.70;;;1.10;;
54923;SDS011;40825;52.270;20.984;2024-03-29T04:34:58;3.30;;;1.00;;
54923;SDS011;40825;52.270;20.984;2024-03-29T04:37:24;3.50;;;1.20;;
54923;SDS011;40825;52.270;20.984;2024-03-29T04:39:49;3.20;;;1.00;;
54923;SDS011;40825;52.270;20.984;2024-03-29T04:42:15;5.00;;;1.40;;
54923;SDS011;40825;52.270;20.984;2024-03-29T04:44:41;3.80;;;1.30;;
54923;SDS011;40825;52.270;20.984;2024-03-29T04:47:06;2.80;;;0.90;;
54923;SDS011;40825;52.270;20.984;2024-03-29T04:49:32;3.90;;;1.10;;
54923;SDS011;40825;52.270;20.984;2024-03-29T04:52:02;3.80;;;1.20;;
54923;SDS011;40825;52.270;20.984;2024-03-29T04:54:32;3.70;;;1.20;;
54923;SDS011;40825;52.270;20.984;2024-03-29T04:56:59;3.50;;;1.20;;
54923;SDS011;40825;52.270;20.984;2024-03-29T04:59:27;3.60;;;1.00;;
54923;SDS011;40825;52.270;20.984;2024-03-29T05:01:53;3.20;;;0.90;;
54923;SDS011;40825;52.270;20.984;2024-03-29T05:04:20;4.10;;;1.40;;
54923;SDS011;40825;52.270;20.984;2024-03-29T05:06:52;3.80;;;1.30;;
54923;SDS011;40825;52.270;20.984;2024-03-29T05:09:19;3.80;;;1.10;;
54923;SDS011;40825;52.270;20.984;2024-03-29T05:11:45;4.40;;;1.90;;
54923;SDS011;40825;52.270;20.984;2024-03-29T05:14:12;3.90;;;1.50;;
54923;SDS011;40825;52.270;20.984;2024-03-29T05:16:40;4.40;;;1.30;;
54923;SDS011;40825;52.270;20.984;2024-03-29T05:19:06;4.80;;;1.50;;
54923;SDS011;40825;52.270;20.984;2024-03-29T05:21:31;4.00;;;1.30;;
54923;SDS011;40825;52.270;20.984;2024-03-29T05:23:56;4.40;;;1.60;;
54923;SDS011;40825;52.270;20.984;2024-03-29T05:26:22;3.40;;;1.20;;
54923;SDS011;40825;52.270;20.984;2024-03-29T05:28:47;3.90;;;1.50;;
54923;SDS011;40825;52.270;20.984;2024-03-29T05:31:14;4.60;;;1.30;;
54923;SDS011;40825;52.270;20.984;2024-03-29T05:33:43;4.50;;;1.50;;
54923;SDS011;40825;52.270;20.984;2024-03-29T05:36:10;4.50;;;1.40;;
54923;SDS011;40825;52.270;20.984;2024-03-29T05:38:38;6.00;;;1.50;;
54923;SDS011;40825;52.270;20.984;2024-03-29T05:41:04;3.00;;;1.50;;
54923;SDS011;40825;52.270;20.984;2024-03-29T05:43:30;4.10;;;1.50;;
54923;SDS011;40825;52.270;20.984;2024-03-29T05:45:56;3.60;;;1.30;;
54923;SDS011;40825;52.270;20.984;2024-03-29T05:48:21;4.00;;;1.30;;
54923;SDS011;40825;52.270;20.984;2024-03-29T05:50:47;4.90;;;1.60;;
54923;SDS011;40825;52.270;20.984;2024-03-29T05:53:31;5.50;;;1.50;;
54923;SDS011;40825;52.270;20.984;2024-03-29T05:55:57;3.90;;;1.30;;
54923;SDS011;40825;52.270;20.984;2024-03-29T05:58:41;4.60;;;1.60;;
54923;SDS011;40825;52.270;20.984;2024-03-29T06:01:07;4.60;;;1.70;;
54923;SDS011;40825;52.270;20.984;2024-03-29T06:03:32;3.70;;;1.10;;
54923;SDS011;40825;52.270;20.984;2024-03-29T06:05:58;4.50;;;1.10;;
54923;SDS011;40825;52.270;20.984;2024-03-29T06:11:07;4.30;;;1.40;;
54923;SDS011;40825;52.270;20.984;2024-03-29T06:13:33;4.40;;;1.50;;
54923;SDS011;40825;52.270;20.984;2024-03-29T06:16:16;4.30;;;1.40;;
54923;SDS011;40825;52.270;20.984;2024-03-29T06:19:00;3.70;;;1.30;;
54923;SDS011;40825;52.270;20.984;2024-03-29T06:21:26;4.10;;;1.20;;
54923;SDS011;40825;52.270;20.984;2024-03-29T06:23:52;3.90;;;1.10;;
54923;SDS011;40825;52.270;20.984;2024-03-29T06:26:18;3.80;;;1.00;;
54923;SDS011;40825;52.270;20.984;2024-03-29T06:28:43;4.20;;;1.30;;
54923;SDS011;40825;52.270;20.984;2024-03-29T06:31:09;4.00;;;1.50;;
54923;SDS011;40825;52.270;20.984;2024-03-29T06:33:34;4.50;;;1.60;;
54923;SDS011;40825;52.270;20.984;2024-03-29T06:35:59;4.50;;;1.40;;
54923;SDS011;40825;52.270;20.984;2024-03-29T06:38:25;3.60;;;1.10;;
54923;SDS011;40825;52.270;20.984;2024-03-29T06:40:51;5.10;;;1.30;;
54923;SDS011;40825;52.270;20.984;2024-03-29T06:43:16;5.90;;;2.10;;
54923;SDS011;40825;52.270;20.984;2024-03-29T06:45:42;4.90;;;1.60;;
54923;SDS011;40825;52.270;20.984;2024-03-29T06:48:10;5.30;;;2.30;;
54923;SDS011;40825;52.270;20.984;2024-03-29T06:53:40;4.30;;;1.90;;
54923;SDS011;40825;52.270;20.984;2024-03-29T06:56:06;3.20;;;1.30;;
54923;SDS011;40825;52.270;20.984;2024-03-29T06:58:32;6.80;;;1.40;;
54923;SDS011;40825;52.270;20.984;2024-03-29T07:00:58;3.50;;;1.40;;
54923;SDS011;40825;52.270;20.984;2024-03-29T07:03:24;4.20;;;1.30;;
54923;SDS011;40825;52.270;20.984;2024-03-29T07:05:49;4.00;;;1.40;;
54923;SDS011;40825;52.270;20.984;2024-03-29T07:08:15;3.70;;;1.30;;
54923;SDS011;40825;52.270;20.984;2024-03-29T07:10:41;8.80;;;2.70;;
54923;SDS011;40825;52.270;20.984;2024-03-29T07:13:06;5.30;;;1.60;;
54923;SDS011;40825;52.270;20.984;2024-03-29T07:15:33;4.60;;;1.20;;
54923;SDS011;40825;52.270;20.984;2024-03-29T07:18:02;3.40;;;0.90;;
54923;SDS011;40825;52.270;20.984;2024-03-29T07:20:28;4.40;;;1.30;;
54923;SDS011;40825;52.270;20.984;2024-03-29T07:22:54;2.70;;;0.80;;
54923;SDS011;40825;52.270;20.984;2024-03-29T07:25:20;3.40;;;1.20;;
54923;SDS011;40825;52.270;20.984;2024-03-29T07:27:45;5.20;;;1.50;;
54923;SDS011;40825;52.270;20.984;2024-03-29T07:30:11;4.80;;;1.20;;
54923;SDS011;40825;52.270;20.984;2024-03-29T07:32:39;3.30;;;1.30;;
54923;SDS011;40825;52.270;20.984;2024-03-29T07:35:05;3.40;;;1.10;;
54923;SDS011;40825;52.270;20.984;2024-03-29T07:37:30;3.70;;;1.20;;
54923;SDS011;40825;52.270;20.984;2024-03-29T07:39:56;3.70;;;1.50;;
54923;SDS011;40825;52.270;20.984;2024-03-29T07:42:21;3.70;;;1.10;;
54923;SDS011;40825;52.270;20.984;2024-03-29T07:44:47;3.70;;;1.10;;
54923;SDS011;40825;52.270;20.984;2024-03-29T07:47:13;3.00;;;1.10;;
54923;SDS011;40825;52.270;20.984;2024-03-29T07:49:39;3.50;;;1.00;;
54923;SDS011;40825;52.270;20.984;2024-03-29T07:52:05;3.40;;;1.10;;
54923;SDS011;40825;52.270;20.984;2024-03-29T07:54:49;4.30;;;1.10;;
54923;SDS011;40825;52.270;20.984;2024-03-29T07:57:14;4.30;;;1.20;;
54923;SDS011;40825;52.270;20.984;2024-03-29T07:59:41;2.70;;;0.70;;
54923;SDS011;40825;52.270;20.984;2024-03-29T08:02:07;3.80;;;1.00;;
54923;SDS011;40825;52.270;20.984;2024-03-29T08:07:17;4.30;;;1.10;;
54923;SDS011;40825;52.270;20.984;2024-03-29T08:09:43;3.40;;;0.90;;
54923;SDS011;40825;52.270;20.984;2024-03-29T08:12:08;3.40;;;0.90;;
54923;SDS011;40825;52.270;20.984;2024-03-29T08:14:34;3.70;;;0.60;;
54923;SDS011;40825;52.270;20.984;2024-03-29T08:16:59;2.90;;;0.50;;
54923;SDS011;40825;52.270;20.984;2024-03-29T08:19:29;2.00;;;0.50;;
54923;SDS011;40825;52.270;20.984;2024-03-29T08:21:55;1.90;;;0.30;;
54923;SDS011;40825;52.270;20.984;2024-03-29T08:24:39;3.80;;;0.40;;
54923;SDS011;40825;52.270;20.984;2024-03-29T08:27:04;1.60;;;0.40;;
54923;SDS011;40825;52.270;20.984;2024-03-29T08:29:30;1.90;;;0.50;;
54923;SDS011;40825;52.270;20.984;2024-03-29T08:32:14;2.40;;;0.60;;
54923;SDS011;40825;52.270;20.984;2024-03-29T08:34:40;2.40;;;0.50;;
54923;SDS011;40825;52.270;20.984;2024-03-29T08:37:05;2.50;;;0.30;;
54923;SDS011;40825;52.270;20.984;2024-03-29T08:39:31;2.10;;;0.40;;
54923;SDS011;40825;52.270;20.984;2024-03-29T08:42:00;4.40;;;0.40;;
54923;SDS011;40825;52.270;20.984;2024-03-29T08:44:33;2.80;;;0.50;;
54923;SDS011;40825;52.270;20.984;2024-03-29T08:46:58;2.40;;;0.40;;
54923;SDS011;40825;52.270;20.984;2024-03-29T08:49:29;3.20;;;0.50;;
54923;SDS011;40825;52.270;20.984;2024-03-29T08:51:56;3.40;;;0.90;;
54923;SDS011;40825;52.270;20.984;2024-03-29T08:54:22;3.10;;;0.60;;
54923;SDS011;40825;52.270;20.984;2024-03-29T08:56:48;2.70;;;0.50;;
54923;SDS011;40825;52.270;20.984;2024-03-29T08:59:13;2.30;;;0.40;;
54923;SDS011;40825;52.270;20.984;2024-03-29T09:01:42;1.60;;;0.50;;
54923;SDS011;40825;52.270;20.984;2024-03-29T09:04:09;2.40;;;0.60;;
54923;SDS011;40825;52.270;20.984;2024-03-29T09:06:39;2.30;;;0.50;;
54923;SDS011;40825;52.270;20.984;2024-03-29T09:09:05;1.60;;;0.40;;
54923;SDS011;40825;52.270;20.984;2024-03-29T09:11:31;1.80;;;0.50;;
54923;SDS011;40825;52.270;20.984;2024-03-29T09:13:57;3.00;;;0.50;;
54923;SDS011;40825;52.270;20.984;2024-03-29T09:16:27;1.40;;;0.60;;
54923;SDS011;40825;52.270;20.984;2024-03-29T09:18:54;2.90;;;0.50;;
54923;SDS011;40825;52.270;20.984;2024-03-29T09:21:20;2.80;;;0.60;;
54923;SDS011;40825;52.270;20.984;2024-03-29T09:23:46;2.50;;;1.10;;
54923;SDS011;40825;52.270;20.984;2024-03-29T09:26:11;3.10;;;0.90;;
54923;SDS011;40825;52.270;20.984;2024-03-29T09:28:55;4.70;;;0.80;;
54923;SDS011;40825;52.270;20.984;2024-03-29T09:31:21;3.20;;;1.00;;
54923;SDS011;40825;52.270;20.984;2024-03-29T09:33:46;2.80;;;0.90;;
54923;SDS011;40825;52.270;20.984;2024-03-29T09:36:15;2.80;;;1.00;;
54923;SDS011;40825;52.270;20.984;2024-03-29T09:38:59;3.50;;;0.80;;
54923;SDS011;40825;52.270;20.984;2024-03-29T09:41:25;2.70;;;0.90;;
54923;SDS011;40825;52.270;20.984;2024-03-29T09:43:54;4.10;;;1.00;;
54923;SDS011;40825;52.270;20.984;2024-03-29T09:46:24;3.40;;;0.90;;
54923;SDS011;40825;52.270;20.984;2024-03-29T09:48:52;4.10;;;1.50;;
54923;SDS011;40825;52.270;20.984;2024-03-29T09:51:20;2.50;;;0.60;;
54923;SDS011;40825;52.270;20.984;2024-03-29T09:53:46;3.00;;;0.60;;
54923;SDS011;40825;52.270;20.984;2024-03-29T09:56:12;3.10;;;0.90;;
54923;SDS011;40825;52.270;20.984;2024-03-29T09:58:38;3.40;;;0.90;;
54923;SDS011;40825;52.270;20.984;2024-03-29T10:01:04;3.50;;;1.10;;
54923;SDS011;40825;52.270;20.984;2024-03-29T10:03:35;4.10;;;0.90;;
54923;SDS011;40825;52.270;20.984;2024-03-29T10:08:49;3.40;;;0.90;;
54923;SDS011;40825;52.270;20.984;2024-03-29T10:11:16;3.60;;;1.00;;
54923;SDS011;40825;52.270;20.984;2024-03-29T10:13:43;2.20;;;0.70;;
54923;SDS011;40825;52.270;20.984;2024-03-29T10:16:11;4.80;;;1.60;;
54923;SDS011;40825;52.270;20.984;2024-03-29T10:18:37;4.60;;;1.00;;
54923;SDS011;40825;52.270;20.984;2024-03-29T10:21:06;4.40;;;1.10;;
54923;SDS011;40825;52.270;20.984;2024-03-29T10:23:32;4.90;;;1.10;;
54923;SDS011;40825;52.270;20.984;2024-03-29T10:28:29;3.30;;;0.90;;
54923;SDS011;40825;52.270;20.984;2024-03-29T10:30:57;3.10;;;0.70;;
54923;SDS011;40825;52.270;20.984;2024-03-29T10:33:23;1.80;;;0.80;;
54923;SDS011;40825;52.270;20.984;2024-03-29T10:35:48;3.00;;;1.00;;
54923;SDS011;40825;52.270;20.984;2024-03-29T10:38:14;7.20;;;2.40;;
54923;SDS011;40825;52.270;20.984;2024-03-29T10:40:39;2.40;;;1.10;;
54923;SDS011;40825;52.270;20.984;2024-03-29T10:43:11;2.90;;;0.90;;
54923;SDS011;40825;52.270;20.984;2024-03-29T10:45:41;5.50;;;1.70;;
54923;SDS011;40825;52.270;20.984;2024-03-29T10:48:08;3.20;;;0.80;;
54923;SDS011;40825;52.270;20.984;2024-03-29T10:50:35;2.30;;;0.70;;
54923;SDS011;40825;52.270;20.984;2024-03-29T10:53:02;3.30;;;1.20;;
54923;SDS011;40825;52.270;20.984;2024-03-29T10:55:35;3.10;;;0.60;;
54923;SDS011;40825;52.270;20.984;2024-03-29T10:58:01;3.30;;;0.80;;
54923;SDS011;40825;52.270;20.984;2024-03-29T11:00:29;3.70;;;0.90;;
54923;SDS011;40825;52.270;20.984;2024-03-29T11:05:50;3.80;;;0.80;;
54923;SDS011;40825;52.270;20.984;2024-03-29T11:08:20;3.10;;;0.60;;
54923;SDS011;40825;52.270;20.984;2024-03-29T11:10:49;2.40;;;1.00;;
54923;SDS011;40825;52.270;20.984;2024-03-29T11:16:17;1.60;;;0.50;;
54923;SDS011;40825;52.270;20.984;2024-03-29T11:18:44;5.70;;;0.90;;
54923;SDS011;40825;52.270;20.984;2024-03-29T11:21:12;2.30;;;0.60;;
54923;SDS011;40825;52.270;20.984;2024-03-29T11:23:57;3.70;;;0.60;;
54923;SDS011;40825;52.270;20.984;2024-03-29T11:26:26;2.90;;;0.50;;
54923;SDS011;40825;52.270;20.984;2024-03-29T11:28:53;2.70;;;0.90;;
54923;SDS011;40825;52.270;20.984;2024-03-29T11:31:22;1.80;;;0.50;;
54923;SDS011;40825;52.270;20.984;2024-03-29T11:33:49;1.50;;;0.40;;
54923;SDS011;40825;52.270;20.984;2024-03-29T11:36:32;2.80;;;0.50;;
54923;SDS011;40825;52.270;20.984;2024-03-29T11:38:58;2.30;;;0.90;;
54923;SDS011;40825;52.270;20.984;2024-03-29T11:41:24;3.80;;;1.00;;
54923;SDS011;40825;52.270;20.984;2024-03-29T11:43:52;1.20;;;0.30;;
54923;SDS011;40825;52.270;20.984;2024-03-29T11:46:18;3.20;;;0.50;;
54923;SDS011;40825;52.270;20.984;2024-03-29T11:48:45;3.80;;;0.60;;
54923;SDS011;40825;52.270;20.984;2024-03-29T11:51:20;2.60;;;0.50;;
54923;SDS011;40825;52.270;20.984;2024-03-29T11:53:49;3.50;;;0.60;;
54923;SDS011;40825;52.270;20.984;2024-03-29T11:56:33;2.30;;;0.50;;
54923;SDS011;40825;52.270;20.984;2024-03-29T11:58:59;3.00;;;1.00;;
54923;SDS011;40825;52.270;20.984;2024-03-29T12:01:27;3.20;;;0.70;;
54923;SDS011;40825;52.270;20.984;2024-03-29T12:03:54;4.00;;;0.60;;
54923;SDS011;40825;52.270;20.984;2024-03-29T12:06:20;2.00;;;0.70;;
54923;SDS011;40825;52.270;20.984;2024-03-29T12:09:04;3.00;;;0.80;;
54923;SDS011;40825;52.270;20.984;2024-03-29T12:11:31;3.10;;;0.40;;
54923;SDS011;40825;52.270;20.984;2024-03-29T12:14:18;2.10;;;0.40;;
54923;SDS011;40825;52.270;20.984;2024-03-29T12:16:44;1.40;;;0.30;;
54923;SDS011;40825;52.270;20.984;2024-03-29T12:19:21;3.30;;;0.60;;
54923;SDS011;40825;52.270;20.984;2024-03-29T12:21:48;3.20;;;0.40;;
54923;SDS011;40825;52.270;20.984;2024-03-29T12:24:13;3.20;;;0.50;;
54923;SDS011;40825;52.270;20.984;2024-03-29T12:26:39;2.50;;;0.80;;
54923;SDS011;40825;52.270;20.984;2024-03-29T12:29:25;2.10;;;0.40;;
54923;SDS011;40825;52.270;20.984;2024-03-29T12:32:00;2.20;;;0.30;;
54923;SDS011;40825;52.270;20.984;2024-03-29T12:34:27;2.80;;;0.50;;
54923;SDS011;40825;52.270;20.984;2024-03-29T12:36:52;3.10;;;0.50;;
54923;SDS011;40825;52.270;20.984;2024-03-29T12:39:18;2.00;;;0.30;;
54923;SDS011;40825;52.270;20.984;2024-03-29T12:41:46;1.90;;;0.40;;
54923;SDS011;40825;52.270;20.984;2024-03-29T12:44:12;1.60;;;0.40;;
54923;SDS011;40825;52.270;20.984;2024-03-29T12:46:37;3.60;;;0.60;;
54923;SDS011;40825;52.270;20.984;2024-03-29T12:49:03;3.60;;;0.50;;
54923;SDS011;40825;52.270;20.984;2024-03-29T12:51:28;3.20;;;0.60;;
54923;SDS011;40825;52.270;20.984;2024-03-29T12:54:03;3.00;;;0.40;;
54923;SDS011;40825;52.270;20.984;2024-03-29T12:56:30;3.10;;;0.40;;
54923;SDS011;40825;52.270;20.984;2024-03-29T12:58:56;4.30;;;0.90;;
54923;SDS011;40825;52.270;20.984;2024-03-29T13:01:22;2.70;;;0.60;;
54923;SDS011;40825;52.270;20.984;2024-03-29T13:03:48;2.60;;;0.50;;
54923;SDS011;40825;52.270;20.984;2024-03-29T13:06:13;3.50;;;0.50;;
54923;SDS011;40825;52.270;20.984;2024-03-29T13:08:39;1.80;;;0.30;;
54923;SDS011;40825;52.270;20.984;2024-03-29T13:11:05;2.30;;;0.30;;
54923;SDS011;40825;52.270;20.984;2024-03-29T13:13:49;1.50;;;0.30;;
54923;SDS011;40825;52.270;20.984;2024-03-29T13:16:14;2.10;;;0.30;;
54923;SDS011;40825;52.270;20.984;2024-03-29T13:18:40;2.40;;;0.60;;
54923;SDS011;40825;52.270;20.984;2024-03-29T13:21:05;2.90;;;0.60;;
54923;SDS011;40825;52.270;20.984;2024-03-29T13:23:31;2.60;;;0.40;;
54923;SDS011;40825;52.270;20.984;2024-03-29T13:25:57;2.90;;;0.30;;
54923;SDS011;40825;52.270;20.984;2024-03-29T13:28:24;3.40;;;0.40;;
54923;SDS011;40825;52.270;20.984;2024-03-29T13:30:49;1.90;;;0.30;;
54923;SDS011;40825;52.270;20.984;2024-03-29T13:33:16;0.80;;;0.20;;
54923;SDS011;40825;52.270;20.984;2024-03-29T13:36:00;2.00;;;0.20;;
54923;SDS011;40825;52.270;20.984;2024-03-29T13:38:27;2.30;;;0.30;;
54923;SDS011;40825;52.270;20.984;2024-03-29T13:40:52;2.80;;;0.50;;
54923;SDS011;40825;52.270;20.984;2024-03-29T13:43:19;2.20;;;0.30;;
54923;SDS011;40825;52.270;20.984;2024-03-29T13:45:47;2.00;;;0.30;;
54923;SDS011;40825;52.270;20.984;2024-03-29T13:48:13;2.30;;;0.60;;
54923;SDS011;40825;52.270;20.984;2024-03-29T13:50:39;0.90;;;0.20;;
54923;SDS011;40825;52.270;20.984;2024-03-29T13:53:04;2.10;;;0.40;;
54923;SDS011;40825;52.270;20.984;2024-03-29T13:55:30;1.20;;;0.20;;
54923;SDS011;40825;52.270;20.984;2024-03-29T13:57:55;1.80;;;0.20;;
54923;SDS011;40825;52.270;20.984;2024-03-29T14:00:22;1.50;;;0.20;;
54923;SDS011;40825;52.270;20.984;2024-03-29T14:02:47;2.90;;;0.40;;
54923;SDS011;40825;52.270;20.984;2024-03-29T14:05:13;2.90;;;0.30;;
54923;SDS011;40825;52.270;20.984;2024-03-29T14:07:39;0.70;;;0.20;;
54923;SDS011;40825;52.270;20.984;2024-03-29T14:10:05;3.60;;;0.30;;
54923;SDS011;40825;52.270;20.984;2024-03-29T14:12:32;2.30;;;0.20;;
54923;SDS011;40825;52.270;20.984;2024-03-29T14:14:57;2.30;;;0.20;;
54923;SDS011;40825;52.270;20.984;2024-03-29T14:17:23;3.30;;;0.30;;
54923;SDS011;40825;52.270;20.984;2024-03-29T14:19:49;3.20;;;0.70;;
54923;SDS011;40825;52.270;20.984;2024-03-29T14:22:16;2.40;;;0.30;;
54923;SDS011;40825;52.270;20.984;2024-03-29T14:24:44;2.90;;;0.60;;
54923;SDS011;40825;52.270;20.984;2024-03-29T14:27:10;2.80;;;0.80;;
54923;SDS011;40825;52.270;20.984;2024-03-29T14:29:37;2.80;;;1.00;;
54923;SDS011;40825;52.270;20.984;2024-03-29T14:32:04;2.40;;;0.40;;
54923;SDS011;40825;52.270;20.984;2024-03-29T14:34:30;2.70;;;0.50;;
54923;SDS011;40825;52.270;20.984;2024-03-29T14:37:02;2.10;;;0.50;;
54923;SDS011;40825;52.270;20.984;2024-03-29T14:39:28;2.20;;;0.30;;
54923;SDS011;40825;52.270;20.984;2024-03-29T14:41:53;1.20;;;0.20;;
54923;SDS011;40825;52.270;20.984;2024-03-29T14:44:19;2.20;;;0.30;;
54923;SDS011;40825;52.270;20.984;2024-03-29T14:46:46;1.50;;;0.20;;
54923;SDS011;40825;52.270;20.984;2024-03-29T14:49:12;2.80;;;0.30;;
54923;SDS011;40825;52.270;20.984;2024-03-29T14:51:39;2.60;;;0.30;;
54923;SDS011;40825;52.270;20.984;2024-03-29T14:54:05;1.70;;;0.20;;
54923;SDS011;40825;52.270;20.984;2024-03-29T14:56:32;2.00;;;0.20;;